createdAt,value
2018-02-22T00:00:53.181Z,13.02
2018-02-22T00:03:20.649Z,13.40
2018-02-22T00:05:48.106Z,12.63
2018-02-22T00:08:15.572Z,10.50
2018-02-22T00:10:43.034Z,10.13
2018-02-22T00:13:10.493Z,9.50
2018-02-22T00:15:37.964Z,9.70
2018-02-22T00:18:06.189Z,11.95
2018-02-22T00:20:33.660Z,10.30
2018-02-22T00:23:01.124Z,10.05
2018-02-22T00:25:28.595Z,10.32
2018-02-22T00:27:56.054Z,10.45
2018-02-22T00:30:23.518Z,10.77
2018-02-22T00:32:50.998Z,10.85
2018-02-22T00:35:19.238Z,10.10
2018-02-22T00:37:46.698Z,10.30
2018-02-22T00:40:14.171Z,9.63
2018-02-22T00:42:41.633Z,9.20
2018-02-22T00:45:09.102Z,9.40
2018-02-22T00:47:36.553Z,9.88
2018-02-22T00:50:04.803Z,9.68
2018-02-22T00:52:32.257Z,9.70
2018-02-22T00:54:59.746Z,10.55
2018-02-22T00:57:27.974Z,11.52
2018-02-22T00:59:55.450Z,10.45
2018-02-22T01:02:22.910Z,10.60
2018-02-22T01:04:51.151Z,9.43
2018-02-22T01:07:18.609Z,10.57
2018-02-22T01:09:46.093Z,10.10
2018-02-22T01:12:13.556Z,11.73
2018-02-22T01:14:41.024Z,12.37
2018-02-22T01:17:08.491Z,13.02
2018-02-22T01:19:35.961Z,12.60
2018-02-22T01:22:04.202Z,12.98
2018-02-22T01:24:31.660Z,12.10
2018-02-22T01:26:59.136Z,12.45
2018-02-22T01:29:26.605Z,12.13
2018-02-22T01:31:54.069Z,11.82
2018-02-22T01:34:22.297Z,10.93
2018-02-22T01:36:49.777Z,10.05
2018-02-22T01:39:17.230Z,9.55
2018-02-22T01:41:44.703Z,9.95
2018-02-22T01:44:12.163Z,9.88
2018-02-22T01:46:39.637Z,10.40
2018-02-22T01:49:07.108Z,11.40
2018-02-22T01:51:35.345Z,10.82
2018-02-22T01:54:02.814Z,11.70
2018-02-22T01:56:30.284Z,12.05
2018-02-22T01:58:57.753Z,12.45
2018-02-22T02:01:25.989Z,11.65
2018-02-22T02:03:53.445Z,10.93
2018-02-22T02:06:20.932Z,9.65
2018-02-22T02:08:49.157Z,9.70
2018-02-22T02:11:16.619Z,9.57
2018-02-22T02:13:44.089Z,9.57
2018-02-22T02:16:11.553Z,11.00
2018-02-22T02:18:39.026Z,11.48
2018-02-22T02:21:06.486Z,12.65
2018-02-22T02:23:33.952Z,11.07
2018-02-22T02:26:02.186Z,10.35
2018-02-22T02:28:29.665Z,10.57
2018-02-22T02:30:57.129Z,10.60
2018-02-22T02:33:24.598Z,9.48
2018-02-22T02:35:52.063Z,10.45
2018-02-22T02:38:20.310Z,10.18
2018-02-22T02:40:47.772Z,10.52
2018-02-22T02:43:15.247Z,10.30
2018-02-22T02:45:42.713Z,11.43
2018-02-22T02:48:10.198Z,11.25
2018-02-22T02:50:37.655Z,10.75
2018-02-22T02:53:05.139Z,10.85
2018-02-22T02:55:32.606Z,11.55
2018-02-22T02:58:00.082Z,9.98
2018-02-22T03:00:27.552Z,11.75
2018-02-22T03:02:55.019Z,11.45
2018-02-22T03:05:22.491Z,12.10
2018-02-22T03:07:50.723Z,12.77
2018-02-22T03:10:18.190Z,9.45
2018-02-22T03:12:45.650Z,9.82
2018-02-22T03:15:13.132Z,11.50
2018-02-22T03:17:40.587Z,11.00
2018-02-22T03:20:08.818Z,10.73
2018-02-22T03:22:36.273Z,10.45
2018-02-22T03:25:03.743Z,11.00
2018-02-22T03:27:31.200Z,9.80
2018-02-22T03:29:58.666Z,9.95
2018-02-22T03:32:26.121Z,9.32
2018-02-22T03:34:53.590Z,9.45
2018-02-22T03:37:21.051Z,9.75
2018-02-22T03:39:48.520Z,9.68
2018-02-22T03:42:15.982Z,11.02
2018-02-22T03:44:43.458Z,10.43
2018-02-22T03:47:10.921Z,10.30
2018-02-22T03:49:38.394Z,11.12
2018-02-22T03:52:05.868Z,10.50
2018-02-22T03:54:33.339Z,10.82
2018-02-22T03:57:00.800Z,9.05
2018-02-22T03:59:28.277Z,9.43
2018-02-22T04:01:55.745Z,11.12
2018-02-22T04:04:23.201Z,9.27
2018-02-22T04:06:50.661Z,9.43
2018-02-22T04:09:18.883Z,10.02
2018-02-22T04:11:46.352Z,10.35
2018-02-22T04:14:13.818Z,11.50
2018-02-22T04:16:41.288Z,11.25
2018-02-22T04:19:08.739Z,11.05
2018-02-22T04:21:36.213Z,9.48
2018-02-22T04:24:03.687Z,10.52
2018-02-22T04:26:31.148Z,11.80
2018-02-22T04:28:58.614Z,10.52
2018-02-22T04:31:26.853Z,9.65
2018-02-22T04:33:54.329Z,10.77
2018-02-22T04:36:21.797Z,9.55
2018-02-22T04:38:50.043Z,9.55
2018-02-22T04:41:17.521Z,10.25
2018-02-22T04:43:45.764Z,10.13
2018-02-22T04:46:13.223Z,10.10
2018-02-22T04:48:40.687Z,9.65
2018-02-22T04:51:08.143Z,10.45
2018-02-22T04:53:35.598Z,11.55
2018-02-22T04:56:03.082Z,10.65
2018-02-22T04:58:30.546Z,9.93
2018-02-22T05:00:58.010Z,9.57
2018-02-22T05:03:26.233Z,9.98
2018-02-22T05:05:53.693Z,9.90
2018-02-22T05:08:21.154Z,9.48
2018-02-22T05:10:48.621Z,11.45
2018-02-22T05:13:16.080Z,9.85
2018-02-22T05:15:44.452Z,9.27
2018-02-22T05:18:11.918Z,10.13
2018-02-22T05:20:39.383Z,10.15
2018-02-22T05:23:06.854Z,10.68
2018-02-22T05:25:34.320Z,12.00
2018-02-22T05:28:01.777Z,12.13
2018-02-22T05:30:29.248Z,12.40
2018-02-22T05:32:57.478Z,10.82
2018-02-22T05:35:24.950Z,10.35
2018-02-22T05:37:52.415Z,11.00
2018-02-22T05:40:19.883Z,11.60
2018-02-22T05:42:47.359Z,9.85
2018-02-22T05:45:15.574Z,9.60
2018-02-22T05:47:43.049Z,10.07
2018-02-22T05:50:10.519Z,10.75
2018-02-22T05:52:37.994Z,9.75
2018-02-22T05:55:05.447Z,11.60
2018-02-22T05:57:32.921Z,10.38
2018-02-22T06:00:01.139Z,11.38
2018-02-22T06:02:28.614Z,11.43
2018-02-22T06:04:56.076Z,11.38
2018-02-22T06:07:23.547Z,11.15
2018-02-22T06:09:51.020Z,10.40
2018-02-22T06:12:18.488Z,11.30
2018-02-22T06:14:46.720Z,13.50
2018-02-22T06:17:14.185Z,10.82
2018-02-22T06:19:41.661Z,10.48
2018-02-22T06:22:09.150Z,10.68
2018-02-22T06:24:36.618Z,10.30
2018-02-22T06:27:04.076Z,10.73
2018-02-22T06:29:31.553Z,10.43
2018-02-22T06:31:59.009Z,10.80
2018-02-22T06:34:26.484Z,11.50
2018-02-22T06:36:53.943Z,11.05
2018-02-22T06:39:21.411Z,11.30
2018-02-22T06:41:48.867Z,11.65
2018-02-22T06:44:16.345Z,11.60
2018-02-22T06:46:43.793Z,10.02
2018-02-22T06:49:11.276Z,11.45
2018-02-22T06:51:38.735Z,13.27
2018-02-22T06:54:06.973Z,13.23
2018-02-22T06:56:35.201Z,13.60
2018-02-22T06:59:02.676Z,14.20
2018-02-22T07:01:30.144Z,12.00
2018-02-22T07:03:57.611Z,11.57
2018-02-22T07:06:25.078Z,13.30
2018-02-22T07:08:52.542Z,11.15
2018-02-22T07:11:20.003Z,11.75
2018-02-22T07:13:47.477Z,13.07
2018-02-22T07:16:14.926Z,14.10
2018-02-22T07:18:42.396Z,15.57
2018-02-22T07:21:09.867Z,16.05
2018-02-22T07:23:37.326Z,16.65
2018-02-22T07:26:04.791Z,15.93
2018-02-22T07:28:32.251Z,15.30
2018-02-22T07:30:59.729Z,18.20
2018-02-22T07:33:27.202Z,15.82
2018-02-22T07:35:54.674Z,16.40
2018-02-22T07:38:22.150Z,16.50
2018-02-22T07:40:49.619Z,15.65
2018-02-22T07:43:17.851Z,15.07
2018-02-22T07:45:45.320Z,12.15
2018-02-22T07:48:12.782Z,11.40
2018-02-22T07:50:40.256Z,12.07
2018-02-22T07:53:07.717Z,10.90
2018-02-22T07:55:35.184Z,11.57
2018-02-22T07:58:03.413Z,11.32
2018-02-22T08:00:30.892Z,11.93
2018-02-22T08:02:59.126Z,11.68
2018-02-22T08:05:26.605Z,11.82
2018-02-22T08:07:54.106Z,11.38
2018-02-22T08:10:22.392Z,12.40
2018-02-22T08:12:50.626Z,12.75
2018-02-22T08:15:18.092Z,14.90
2018-02-22T08:17:45.550Z,14.63
2018-02-22T08:20:13.021Z,14.20
2018-02-22T08:22:40.492Z,14.45
2018-02-22T08:25:07.962Z,14.38
2018-02-22T08:27:36.186Z,14.55
2018-02-22T08:30:03.653Z,15.30
2018-02-22T08:32:31.121Z,12.93
2018-02-22T08:34:58.590Z,14.27
2018-02-22T08:37:26.082Z,15.87
2018-02-22T08:39:53.537Z,14.93
2018-02-22T08:42:21.007Z,16.57
2018-02-22T08:44:48.463Z,14.10
2018-02-22T08:47:15.933Z,13.90
2018-02-22T08:49:43.402Z,13.23
2018-02-22T08:52:10.861Z,13.47
2018-02-22T08:54:38.325Z,14.27
2018-02-22T08:57:05.803Z,13.83
2018-02-22T08:59:33.249Z,14.00
2018-02-22T09:02:00.724Z,14.67
2018-02-22T09:04:28.170Z,14.23
2018-02-22T09:06:55.644Z,14.52
2018-02-22T09:09:23.097Z,14.67
2018-02-22T09:11:50.561Z,14.73
2018-02-22T09:14:18.009Z,14.43
2018-02-22T09:16:45.470Z,13.53
2018-02-22T09:19:12.926Z,14.00
2018-02-22T09:21:40.400Z,13.30
2018-02-22T09:24:07.850Z,12.07
2018-02-22T09:26:35.313Z,13.67
2018-02-22T09:29:02.778Z,13.30
2018-02-22T09:31:30.237Z,13.33
2018-02-22T09:33:58.464Z,12.50
2018-02-22T09:36:25.932Z,12.77
2018-02-22T09:38:53.389Z,13.27
2018-02-22T09:41:20.858Z,12.33
2018-02-22T09:43:48.326Z,12.20
2018-02-22T09:46:15.783Z,13.47
2018-02-22T09:48:43.234Z,14.10
2018-02-22T09:51:10.688Z,13.10
2018-02-22T09:53:38.171Z,11.57
2018-02-22T09:56:05.626Z,11.27
2018-02-22T09:58:33.087Z,11.77
2018-02-22T10:01:00.544Z,12.73
2018-02-22T10:03:28.014Z,12.20
2018-02-22T10:05:56.233Z,11.53
2018-02-22T10:08:23.693Z,11.77
2018-02-22T10:10:51.147Z,11.67
2018-02-22T10:13:18.614Z,10.73
2018-02-22T10:15:46.073Z,10.73
2018-02-22T10:18:13.539Z,12.43
2018-02-22T10:20:41.015Z,10.80
2018-02-22T10:23:08.477Z,10.53
2018-02-22T10:25:35.942Z,11.10
2018-02-22T10:28:03.393Z,11.47
2018-02-22T10:30:30.858Z,13.07
2018-02-22T10:32:58.320Z,12.57
2018-02-22T10:35:26.559Z,13.03
2018-02-22T10:37:54.022Z,14.60
2018-02-22T10:40:21.502Z,12.03
2018-02-22T10:42:48.958Z,12.63
2018-02-22T10:45:16.416Z,12.47
2018-02-22T10:47:43.874Z,13.10
2018-02-22T10:50:11.337Z,12.97
2018-02-22T10:52:38.790Z,13.07
2018-02-22T10:55:06.273Z,13.13
2018-02-22T10:57:34.485Z,12.77
2018-02-22T11:00:01.946Z,12.87
2018-02-22T11:02:35.011Z,11.77
2018-02-22T11:05:02.463Z,11.93
2018-02-22T11:07:29.931Z,13.10
2018-02-22T11:09:58.157Z,11.30
2018-02-22T11:12:25.626Z,11.13
2018-02-22T11:14:53.082Z,11.77
2018-02-22T11:17:20.542Z,11.60
2018-02-22T11:19:48.128Z,11.70
2018-02-22T11:22:15.548Z,11.00
2018-02-22T11:24:43.003Z,11.43
2018-02-22T11:27:10.474Z,10.97
2018-02-22T11:29:37.926Z,11.70
2018-02-22T11:32:05.387Z,9.93
2018-02-22T11:34:32.837Z,11.13
2018-02-22T11:37:00.298Z,12.07
2018-02-22T11:39:27.760Z,10.27
2018-02-22T11:41:55.217Z,10.03
2018-02-22T11:44:22.674Z,11.43
2018-02-22T11:46:50.158Z,10.67
2018-02-22T11:49:18.383Z,10.33
2018-02-22T11:51:45.841Z,11.20
2018-02-22T11:54:13.302Z,11.37
2018-02-22T11:56:40.759Z,10.97
2018-02-22T11:59:08.230Z,10.87
2018-02-22T12:01:35.688Z,10.97
2018-02-22T12:04:03.153Z,11.77
2018-02-22T12:06:30.614Z,11.90
2018-02-22T12:08:58.081Z,11.70
2018-02-22T12:11:26.304Z,11.23
2018-02-22T12:13:53.761Z,10.70
2018-02-22T12:16:21.222Z,11.60
2018-02-22T12:18:48.692Z,11.13
2018-02-22T12:21:16.156Z,10.57
2018-02-22T12:23:43.626Z,12.57
2018-02-22T12:26:11.091Z,11.03
2018-02-22T12:28:38.551Z,14.13
2018-02-22T12:31:06.014Z,13.17
2018-02-22T12:33:34.254Z,11.70
2018-02-22T12:36:01.723Z,12.43
2018-02-22T12:38:30.965Z,12.93
2018-02-22T12:40:58.422Z,12.70
2018-02-22T12:43:26.650Z,12.30
2018-02-22T12:45:54.109Z,11.47
2018-02-22T12:48:21.578Z,10.80
2018-02-22T12:50:49.043Z,11.80
2018-02-22T12:53:16.497Z,11.40
2018-02-22T12:55:43.969Z,11.53
2018-02-22T12:58:12.023Z,10.80
2018-02-22T13:00:39.518Z,11.17
2018-02-22T13:03:07.756Z,11.50
2018-02-22T13:05:35.240Z,12.07
2018-02-22T13:08:02.665Z,11.90
2018-02-22T13:10:55.329Z,10.43
2018-02-22T13:13:22.786Z,10.57
2018-02-22T13:15:50.250Z,10.77
2018-02-22T13:18:42.488Z,11.10
2018-02-22T13:24:03.878Z,11.00
2018-02-22T13:26:31.338Z,10.33
2018-02-22T13:28:58.799Z,9.97
2018-02-22T13:31:26.255Z,11.43
2018-02-22T13:34:06.280Z,11.73
2018-02-22T13:36:33.733Z,12.73
2018-02-22T13:39:12.627Z,13.23
2018-02-22T13:41:40.102Z,12.97
2018-02-22T13:44:19.297Z,12.93
2018-02-22T13:46:46.759Z,13.73
2018-02-22T13:49:26.051Z,12.90
2018-02-22T13:51:53.526Z,12.60
2018-02-22T13:54:20.974Z,12.83
2018-02-22T13:57:00.435Z,11.57
2018-02-22T13:59:27.926Z,12.27
2018-02-22T14:02:07.171Z,13.23
2018-02-22T14:04:45.478Z,13.63
2018-02-22T14:07:12.941Z,13.73
2018-02-22T14:09:41.169Z,13.30
2018-02-22T14:12:08.645Z,11.73
2018-02-22T14:14:36.093Z,13.60
2018-02-22T14:17:03.567Z,13.63
2018-02-22T14:31:06.579Z,14.00
2018-02-22T14:33:54.480Z,13.00
2018-02-22T14:36:21.955Z,13.47
2018-02-22T14:38:50.186Z,14.33
2018-02-22T14:41:17.640Z,15.40
2018-02-22T14:43:45.103Z,12.77
2018-02-22T14:46:12.556Z,12.93
2018-02-22T14:48:40.024Z,13.90
2018-02-22T14:51:07.478Z,14.20
2018-02-22T14:53:34.948Z,12.50
2018-02-22T14:56:02.408Z,12.67
2018-02-22T15:01:24.157Z,13.93
2018-02-22T15:03:51.623Z,14.90
2018-02-22T15:06:19.077Z,13.83
2018-02-22T15:08:46.539Z,14.57
2018-02-22T15:11:13.996Z,13.73
2018-02-22T15:13:41.464Z,15.10
2018-02-22T15:16:08.924Z,14.30
2018-02-22T15:18:36.383Z,15.07
2018-02-22T15:21:03.838Z,14.97
2018-02-22T15:23:32.666Z,15.90
2018-02-22T15:26:00.192Z,14.53
2018-02-22T15:28:27.669Z,15.13
2018-02-22T15:30:55.890Z,16.10
2018-02-22T15:33:23.351Z,14.43
2018-02-22T15:35:50.807Z,15.53
2018-02-22T15:38:18.271Z,16.47
2018-02-22T15:40:45.731Z,15.93
2018-02-22T15:43:13.195Z,16.00
2018-02-22T15:45:40.659Z,15.93
2018-02-22T15:48:08.977Z,13.13
2018-02-22T15:50:36.433Z,10.83
2018-02-22T15:53:03.909Z,9.17
2018-02-22T15:55:31.370Z,9.00
2018-02-22T15:57:58.826Z,7.77
2018-02-22T16:00:26.293Z,8.27
2018-02-22T16:02:53.752Z,7.27
2018-02-22T16:05:25.214Z,8.27
2018-02-22T16:07:52.698Z,7.57
2018-02-22T16:10:20.192Z,7.53
2018-02-22T16:12:47.672Z,7.23
2018-02-22T16:15:15.160Z,7.20
2018-02-22T16:17:42.654Z,6.97
2018-02-22T16:20:10.914Z,7.20
2018-02-22T16:22:38.415Z,7.03
2018-02-22T16:25:05.917Z,6.90
2018-02-22T16:27:33.455Z,6.47
2018-02-22T16:30:00.944Z,5.60
2018-02-22T16:32:28.419Z,5.30
2018-02-22T16:34:56.675Z,5.50
2018-02-22T16:37:24.913Z,4.43
2018-02-22T16:39:52.404Z,3.87
2018-02-22T16:42:19.880Z,3.42
2018-02-22T16:44:48.147Z,3.70
2018-02-22T16:47:15.623Z,3.73
2018-02-22T16:49:43.893Z,3.10
2018-02-22T16:55:02.731Z,2.53
2018-02-22T16:57:30.206Z,3.05
2018-02-22T16:59:57.679Z,2.97
2018-02-22T17:02:25.141Z,3.40
2018-02-22T17:04:52.602Z,2.27
2018-02-22T17:07:20.842Z,2.67
2018-02-22T17:09:48.307Z,2.85
2018-02-22T17:12:15.785Z,2.73
2018-02-22T17:14:44.014Z,2.65
2018-02-22T17:17:11.476Z,3.22
2018-02-22T17:19:38.933Z,3.05
2018-02-22T17:22:06.395Z,2.90
2018-02-22T17:24:33.850Z,2.97
2018-02-22T17:27:06.954Z,2.58
2018-02-22T17:29:44.650Z,2.65
2018-02-22T17:32:17.837Z,2.15
2018-02-22T17:34:52.606Z,2.83
2018-02-22T17:37:20.829Z,2.72
2018-02-22T17:40:06.100Z,3.03
2018-02-22T17:42:36.948Z,2.72
2018-02-22T17:45:04.394Z,3.05
2018-02-22T17:47:31.853Z,2.55
2018-02-22T17:49:59.316Z,2.53
2018-02-22T17:52:26.772Z,2.78
2018-02-22T17:54:54.227Z,3.10
2018-02-22T17:57:28.088Z,2.92
2018-02-22T18:00:09.536Z,2.62
2018-02-22T18:02:37.799Z,2.67
2018-02-22T18:05:05.259Z,2.60
2018-02-22T18:07:32.710Z,2.40
2018-02-22T18:10:00.168Z,2.85
2018-02-22T18:12:27.627Z,2.60
2018-02-22T18:14:55.076Z,2.35
2018-02-22T18:17:22.549Z,3.00
2018-02-22T18:19:49.984Z,2.80
2018-02-22T18:22:17.452Z,2.80
2018-02-22T18:24:44.900Z,2.80
2018-02-22T18:27:12.358Z,3.10
2018-02-22T18:29:39.810Z,3.08
2018-02-22T18:32:07.284Z,2.67
2018-02-22T18:34:34.729Z,2.90
2018-02-22T18:37:02.177Z,2.75
2018-02-22T18:39:29.625Z,3.00
2018-02-22T18:42:03.607Z,3.10
2018-02-22T18:44:36.860Z,2.83
2018-02-22T18:47:05.090Z,3.70
2018-02-22T18:49:32.554Z,2.87
2018-02-22T18:52:00.012Z,3.22
2018-02-22T18:54:28.251Z,3.17
2018-02-22T18:56:55.716Z,3.12
2018-02-22T18:59:23.168Z,3.25
2018-02-22T19:01:50.617Z,2.97
2018-02-22T19:04:18.086Z,3.20
2018-02-22T19:06:45.536Z,3.08
2018-02-22T19:09:12.997Z,3.12
2018-02-22T19:11:40.458Z,2.87
2018-02-22T19:14:07.923Z,2.95
2018-02-22T19:16:35.364Z,3.00
2018-02-22T19:19:02.850Z,3.40
2018-02-22T19:21:30.312Z,3.28
2018-02-22T19:23:57.784Z,2.53
2018-02-22T19:26:26.005Z,3.22
2018-02-22T19:28:53.474Z,3.72
2018-02-22T19:31:20.931Z,3.53
2018-02-22T19:33:48.399Z,3.40
2018-02-22T19:36:15.859Z,3.25
2018-02-22T19:38:44.297Z,3.25
2018-02-22T19:41:11.976Z,2.97
2018-02-22T19:43:39.514Z,3.42
2018-02-22T19:46:06.971Z,3.47
2018-02-22T19:48:34.442Z,3.10
2018-02-22T19:51:02.658Z,2.90
2018-02-22T19:53:30.118Z,2.72
2018-02-22T19:55:57.568Z,3.42
2018-02-22T19:58:25.030Z,3.53
2018-02-22T20:00:53.742Z,3.53
2018-02-22T20:03:21.194Z,3.50
2018-02-22T20:05:48.642Z,3.28
2018-02-22T20:08:16.117Z,3.10
2018-02-22T20:10:44.340Z,4.00
2018-02-22T20:13:11.800Z,3.22
2018-02-22T20:15:39.270Z,3.37
2018-02-22T20:18:06.716Z,3.53
2018-02-22T20:20:34.189Z,3.62
2018-02-22T20:23:01.645Z,4.10
2018-02-22T20:25:29.121Z,3.55
2018-02-22T20:27:56.575Z,3.47
2018-02-22T20:30:24.033Z,3.80
2018-02-22T20:32:51.484Z,3.22
2018-02-22T20:35:18.945Z,3.47
2018-02-22T20:37:46.437Z,3.53
2018-02-22T20:40:13.844Z,3.37
2018-02-22T20:42:41.307Z,4.07
2018-02-22T20:45:08.763Z,3.60
2018-02-22T20:47:36.220Z,3.60
2018-02-22T20:50:03.685Z,3.72
2018-02-22T20:52:33.552Z,3.80
2018-02-22T20:55:10.901Z,3.20
2018-02-22T20:57:38.495Z,3.33
2018-02-22T21:00:05.978Z,3.20
2018-02-22T21:02:33.576Z,3.40
2018-02-22T21:05:01.080Z,3.60
2018-02-22T21:07:29.325Z,3.87
2018-02-22T21:09:56.868Z,3.40
2018-02-22T21:12:24.413Z,3.70
2018-02-22T21:14:51.923Z,3.28
2018-02-22T21:17:20.143Z,3.70
2018-02-22T21:19:47.600Z,3.45
2018-02-22T21:22:15.047Z,3.42
2018-02-22T21:24:42.515Z,3.90
2018-02-22T21:27:10.736Z,3.45
2018-02-22T21:29:39.498Z,3.40
2018-02-22T21:32:07.445Z,3.57
2018-02-22T21:34:55.072Z,3.40
2018-02-22T21:37:23.042Z,3.50
2018-02-22T21:39:51.012Z,4.05
2018-02-22T21:42:19.191Z,3.22
2018-02-22T21:44:46.934Z,3.58
2018-02-22T21:47:14.926Z,3.47
2018-02-22T21:49:42.892Z,3.87
2018-02-22T21:52:10.864Z,3.33
2018-02-22T21:54:38.831Z,3.42
2018-02-22T21:57:06.543Z,3.42
2018-02-22T21:59:34.462Z,3.50
2018-02-22T22:02:02.434Z,3.58
2018-02-22T22:04:30.718Z,3.47
2018-02-22T22:06:58.887Z,3.85
2018-02-22T22:09:27.266Z,3.37
2018-02-22T22:11:54.725Z,3.42
2018-02-22T22:14:22.180Z,3.40
2018-02-22T22:16:49.633Z,3.62
2018-02-22T22:19:17.095Z,3.27
2018-02-22T22:21:44.552Z,3.28
2018-02-22T22:24:12.006Z,3.30
2018-02-22T22:26:39.469Z,3.05
2018-02-22T22:29:06.924Z,3.62
2018-02-22T22:31:34.385Z,3.78
2018-02-22T22:34:01.870Z,4.05
2018-02-22T22:36:29.322Z,3.95
2018-02-22T22:38:56.794Z,3.97
2018-02-22T22:41:24.240Z,4.60
2018-02-22T22:43:51.708Z,4.70
2018-02-22T22:46:19.152Z,4.30
2018-02-22T22:48:46.617Z,4.32
2018-02-22T22:51:14.062Z,3.95
2018-02-22T22:53:41.530Z,4.25
2018-02-22T22:56:08.990Z,4.68
2018-02-22T22:58:36.456Z,4.87
2018-02-22T23:01:03.918Z,4.45
2018-02-22T23:03:31.385Z,4.60
2018-02-22T23:05:59.620Z,5.22
2018-02-22T23:08:27.130Z,4.80
2018-02-22T23:10:54.547Z,4.85
2018-02-22T23:13:22.046Z,4.80
2018-02-22T23:15:50.272Z,4.80
2018-02-22T23:18:17.736Z,5.45
2018-02-22T23:20:45.186Z,5.18
2018-02-22T23:23:12.645Z,5.82
2018-02-22T23:25:40.092Z,5.40
2018-02-22T23:28:07.545Z,5.78
2018-02-22T23:30:35.017Z,5.43
2018-02-22T23:33:02.468Z,6.10
2018-02-22T23:35:30.433Z,6.15
2018-02-22T23:37:58.405Z,5.62
2018-02-22T23:40:32.317Z,6.07
2018-02-22T23:42:59.821Z,6.87
2018-02-22T23:45:28.064Z,6.18
2018-02-22T23:47:55.515Z,6.45
2018-02-22T23:50:22.986Z,6.55
2018-02-22T23:52:50.440Z,6.18
2018-02-22T23:55:17.909Z,6.70
2018-02-22T23:57:45.365Z,6.40
